Time;durP1;ratioP1;P1;durP2;ratioP2;P2;SDS_P1;SDS_P2;PMS_P1;PMS_P2;Temp;Humidity;BMP_temperature;BMP_pressure;BME280_temperature;BME280_humidity;BME280_pressure;Samples;Min_cycle;Max_cycle;Signal;HPM_P1;HPM_P2
2023/04/28 00:02:13;;;;;;;9.55;3.83;;;;;;;;;;7372361;19;20480;-67
2023/04/28 00:04:38;;;;;;;11.07;3.92;;;;;;;;;;7371904;19;20015;-67
2023/04/28 00:07:03;;;;;;;9.18;3.90;;;;;;;;;;7390076;19;19998;-67
2023/04/28 00:09:29;;;;;;;9.00;4.03;;;;;;;;;;7368594;19;20453;-67
2023/04/28 00:11:54;;;;;;;8.20;3.50;;;;;;;;;;7369629;19;20438;-67
2023/04/28 00:14:20;;;;;;;10.93;4.25;;;;;;;;;;7369167;19;20642;-67
2023/04/28 00:16:45;;;;;;;7.22;3.50;;;;;;;;;;7368250;19;20110;-67
2023/04/28 00:19:11;;;;;;;8.07;3.47;;;;;;;;;;7390819;19;20422;-67
2023/04/28 00:21:36;;;;;;;10.50;4.00;;;;;;;;;;7368008;19;19999;-67
2023/04/28 00:24:01;;;;;;;10.82;3.50;;;;;;;;;;7369122;19;21657;-67
2023/04/28 00:26:26;;;;;;;6.68;3.50;;;;;;;;;;7369336;19;20537;-67
2023/04/28 00:28:52;;;;;;;11.20;3.90;;;;;;;;;;7369237;19;20002;-67
2023/04/28 00:31:17;;;;;;;7.35;3.53;;;;;;;;;;7390428;19;20315;-67
2023/04/28 00:33:43;;;;;;;9.00;3.42;;;;;;;;;;7368490;19;20003;-67
2023/04/28 00:36:10;;;;;;;9.63;3.67;;;;;;;;;;7370846;19;20092;-68
2023/04/28 00:38:36;;;;;;;8.98;3.67;;;;;;;;;;7368746;19;20071;-67
2023/04/28 00:41:01;;;;;;;8.00;3.30;;;;;;;;;;7367895;19;19999;-67
2023/04/28 00:43:27;;;;;;;8.20;3.35;;;;;;;;;;7368258;19;20015;-68
2023/04/28 00:45:53;;;;;;;6.72;3.22;;;;;;;;;;7390254;19;20061;-67
2023/04/28 00:48:18;;;;;;;8.13;3.10;;;;;;;;;;7366716;19;20031;-67
2023/04/28 00:50:44;;;;;;;8.48;3.40;;;;;;;;;;7366519;19;20073;-67
2023/04/28 00:53:11;;;;;;;10.57;3.53;;;;;;;;;;7374046;19;20031;-67
2023/04/28 00:55:37;;;;;;;6.25;3.42;;;;;;;;;;7367047;19;19998;-68
2023/04/28 00:58:04;;;;;;;7.40;3.40;;;;;;;;;;7386973;19;20002;-67
2023/04/28 01:00:30;;;;;;;9.40;3.47;;;;;;;;;;7367333;19;19998;-67
2023/04/28 01:02:56;;;;;;;7.20;3.35;;;;;;;;;;7368587;19;20009;-67
2023/04/28 01:05:24;;;;;;;8.15;3.53;;;;;;;;;;7370815;19;20548;-67
2023/04/28 01:07:49;;;;;;;12.38;3.95;;;;;;;;;;7369922;19;20002;-67
2023/04/28 01:10:14;;;;;;;9.15;3.53;;;;;;;;;;7392089;19;20009;-67
2023/04/28 01:12:40;;;;;;;7.50;3.22;;;;;;;;;;7367902;19;20011;-67
2023/04/28 01:15:08;;;;;;;9.32;3.63;;;;;;;;;;7369406;19;20007;-67
2023/04/28 01:17:34;;;;;;;9.93;3.60;;;;;;;;;;7370052;19;20007;-67
2023/04/28 01:20:00;;;;;;;9.40;3.80;;;;;;;;;;7370017;19;20378;-67
2023/04/28 01:22:25;;;;;;;8.43;4.20;;;;;;;;;;7369007;19;19991;-67
2023/04/28 01:24:50;;;;;;;11.02;4.25;;;;;;;;;;7391981;19;20023;-65
2023/04/28 01:27:15;;;;;;;9.18;4.00;;;;;;;;;;7365990;19;20003;-66
2023/04/28 01:29:41;;;;;;;7.38;3.65;;;;;;;;;;7366669;19;20027;-68
2023/04/28 01:32:06;;;;;;;10.65;4.22;;;;;;;;;;7370848;19;20528;-69
2023/04/28 01:34:32;;;;;;;10.65;4.05;;;;;;;;;;7367265;19;19990;-66
2023/04/28 01:36:57;;;;;;;8.50;3.65;;;;;;;;;;7388854;19;20403;-66
2023/04/28 01:39:22;;;;;;;7.28;4.15;;;;;;;;;;7371020;19;20010;-68
2023/04/28 01:41:47;;;;;;;8.13;4.25;;;;;;;;;;7368263;19;20459;-67
2023/04/28 01:44:13;;;;;;;9.05;3.70;;;;;;;;;;7367546;19;20418;-66
2023/04/28 01:46:38;;;;;;;12.07;4.22;;;;;;;;;;7365336;19;20050;-66
2023/04/28 01:49:03;;;;;;;10.30;4.03;;;;;;;;;;7388129;19;20063;-67
2023/04/28 01:51:30;;;;;;;9.05;4.30;;;;;;;;;;7366444;19;20383;-68
2023/04/28 01:53:55;;;;;;;10.18;4.28;;;;;;;;;;7366636;19;20007;-68
2023/04/28 01:56:21;;;;;;;6.90;4.07;;;;;;;;;;7365381;19;20007;-68
2023/04/28 01:58:46;;;;;;;8.90;4.63;;;;;;;;;;7366859;19;20475;-68
2023/04/28 02:01:11;;;;;;;8.77;4.13;;;;;;;;;;7387472;19;19999;-68
2023/04/28 02:03:37;;;;;;;9.43;4.55;;;;;;;;;;7365660;19;20061;-68
2023/04/28 02:06:03;;;;;;;9.88;5.00;;;;;;;;;;7365583;19;19998;-68
2023/04/28 02:08:28;;;;;;;10.05;4.72;;;;;;;;;;7365356;19;20382;-68
2023/04/28 02:10:56;;;;;;;7.78;4.82;;;;;;;;;;7367844;19;20002;-68
2023/04/28 02:13:21;;;;;;;13.25;5.20;;;;;;;;;;7385175;19;19995;-71
2023/04/28 02:15:47;;;;;;;9.73;4.78;;;;;;;;;;7376076;19;20092;-68
2023/04/28 02:18:12;;;;;;;13.93;6.05;;;;;;;;;;7364057;19;20069;-68
2023/04/28 02:20:37;;;;;;;11.38;5.20;;;;;;;;;;7367364;19;20101;-68
2023/04/28 02:23:03;;;;;;;10.25;4.63;;;;;;;;;;7365538;19;20002;-68
2023/04/28 02:25:28;;;;;;;12.90;4.50;;;;;;;;;;7365039;19;19995;-68
2023/04/28 02:27:53;;;;;;;13.07;4.72;;;;;;;;;;7390462;19;20426;-68
2023/04/28 02:30:19;;;;;;;16.00;5.20;;;;;;;;;;7368682;19;20022;-68
2023/04/28 02:32:44;;;;;;;10.48;4.82;;;;;;;;;;7366331;19;20031;-68
2023/04/28 02:35:09;;;;;;;11.30;4.63;;;;;;;;;;7368802;19;20030;-68
2023/04/28 02:37:35;;;;;;;13.13;5.40;;;;;;;;;;7365109;19;19994;-68
2023/04/28 02:40:00;;;;;;;17.30;4.80;;;;;;;;;;7387054;19;20578;-68
2023/04/28 02:42:25;;;;;;;10.18;4.68;;;;;;;;;;7365880;19;20019;-68
2023/04/28 02:44:51;;;;;;;11.23;4.80;;;;;;;;;;7364912;19;19998;-68
2023/04/28 02:47:16;;;;;;;14.88;5.03;;;;;;;;;;7363875;19;20003;-68
2023/04/28 02:49:41;;;;;;;11.18;4.60;;;;;;;;;;7368419;19;20014;-68
2023/04/28 02:52:07;;;;;;;10.10;4.78;;;;;;;;;;7389069;19;19995;-68
2023/04/28 02:54:34;;;;;;;13.77;4.93;;;;;;;;;;7364254;19;19998;-68
2023/04/28 02:57:00;;;;;;;10.80;4.78;;;;;;;;;;7362935;19;19998;-68
2023/04/28 02:59:26;;;;;;;15.20;4.88;;;;;;;;;;7363969;19;20005;-68
2023/04/28 03:01:51;;;;;;;11.23;5.10;;;;;;;;;;7366242;19;20027;-68
2023/04/28 03:04:17;;;;;;;15.18;5.38;;;;;;;;;;7387154;19;20027;-68
2023/04/28 03:06:42;;;;;;;14.23;5.35;;;;;;;;;;7362678;19;20003;-68
2023/04/28 03:09:08;;;;;;;14.88;5.20;;;;;;;;;;7364199;19;20484;-68
2023/04/28 03:11:34;;;;;;;13.30;5.07;;;;;;;;;;7364248;19;20049;-68
2023/04/28 03:13:59;;;;;;;8.60;4.80;;;;;;;;;;7364936;19;20006;-68
2023/04/28 03:16:24;;;;;;;15.10;4.90;;;;;;;;;;7363529;19;20001;-68
2023/04/28 03:18:50;;;;;;;10.27;4.82;;;;;;;;;;7388933;19;19998;-69
2023/04/28 03:21:15;;;;;;;12.32;5.13;;;;;;;;;;7363446;19;19998;-67
2023/04/28 03:23:41;;;;;;;12.32;5.10;;;;;;;;;;7365615;19;20006;-68
2023/04/28 03:26:06;;;;;;;10.52;5.00;;;;;;;;;;7366165;19;20082;-68
2023/04/28 03:28:31;;;;;;;10.20;5.28;;;;;;;;;;7365014;19;20006;-68
2023/04/28 03:30:57;;;;;;;8.63;5.07;;;;;;;;;;7390231;19;20002;-68
2023/04/28 03:33:22;;;;;;;10.98;5.07;;;;;;;;;;7370602;19;20002;-68
2023/04/28 03:35:47;;;;;;;7.65;5.18;;;;;;;;;;7370543;19;20027;-68
2023/04/28 03:38:13;;;;;;;7.88;4.80;;;;;;;;;;7371344;19;19994;-69
2023/04/28 03:40:38;;;;;;;8.80;4.70;;;;;;;;;;7370731;19;20488;-68
2023/04/28 03:43:04;;;;;;;12.43;5.00;;;;;;;;;;7392430;19;19998;-68
2023/04/28 03:45:29;;;;;;;12.85;4.82;;;;;;;;;;7370776;19;20366;-68
2023/04/28 03:47:55;;;;;;;7.60;4.80;;;;;;;;;;7374472;19;20006;-68
2023/04/28 03:50:20;;;;;;;8.63;4.63;;;;;;;;;;7371771;19;20002;-68
2023/04/28 03:52:45;;;;;;;10.18;4.95;;;;;;;;;;7370765;19;20010;-68
2023/04/28 03:55:11;;;;;;;11.10;4.82;;;;;;;;;;7393894;19;20005;-67
2023/04/28 03:57:36;;;;;;;13.98;4.53;;;;;;;;;;7370813;19;20468;-67
2023/04/28 04:00:02;;;;;;;17.45;5.60;;;;;;;;;;7370010;19;20100;-67
2023/04/28 04:02:27;;;;;;;9.77;4.40;;;;;;;;;;7369265;19;20476;-67
2023/04/28 04:04:52;;;;;;;9.68;4.90;;;;;;;;;;7370042;19;20702;-67
2023/04/28 04:07:18;;;;;;;10.13;4.75;;;;;;;;;;7391381;19;19994;-67
2023/04/28 04:09:43;;;;;;;12.85;5.28;;;;;;;;;;7372520;19;20023;-66
2023/04/28 04:12:08;;;;;;;10.43;5.35;;;;;;;;;;7380063;19;19995;-66
2023/04/28 04:14:34;;;;;;;10.05;4.95;;;;;;;;;;7381156;19;19998;-68
2023/04/28 04:16:59;;;;;;;10.93;5.72;;;;;;;;;;7379736;19;19999;-68
2023/04/28 04:19:25;;;;;;;10.98;5.43;;;;;;;;;;7377445;19;20014;-69
2023/04/28 04:21:51;;;;;;;9.48;5.20;;;;;;;;;;7394065;19;20007;-68
2023/04/28 04:24:16;;;;;;;12.57;5.97;;;;;;;;;;7371536;19;20427;-68
2023/04/28 04:26:42;;;;;;;10.48;5.72;;;;;;;;;;7367197;19;20024;-68
2023/04/28 04:29:07;;;;;;;8.73;5.85;;;;;;;;;;7369253;19;20022;-68
2023/04/28 04:31:32;;;;;;;9.82;5.43;;;;;;;;;;7391229;19;20143;-69
2023/04/28 04:33:58;;;;;;;12.77;5.88;;;;;;;;;;7370100;19;20042;-67
2023/04/28 04:36:26;;;;;;;11.52;5.68;;;;;;;;;;7368206;19;20039;-68
2023/04/28 04:38:51;;;;;;;10.32;6.70;;;;;;;;;;7372085;19;20002;-67
2023/04/28 04:41:19;;;;;;;13.13;6.68;;;;;;;;;;7372904;19;20046;-68
2023/04/28 04:43:45;;;;;;;12.32;6.22;;;;;;;;;;7372006;19;20014;-67
2023/04/28 04:46:10;;;;;;;12.68;6.80;;;;;;;;;;7398482;19;20002;-68
2023/04/28 04:48:35;;;;;;;12.52;6.78;;;;;;;;;;7370937;19;20011;-69
2023/04/28 04:51:01;;;;;;;14.00;6.53;;;;;;;;;;7372051;19;20006;-69
2023/04/28 04:53:26;;;;;;;10.73;6.90;;;;;;;;;;7370349;19;20006;-70
2023/04/28 04:55:51;;;;;;;12.93;6.75;;;;;;;;;;7371098;19;20023;-70
2023/04/28 04:58:17;;;;;;;13.05;7.43;;;;;;;;;;7390873;19;20006;-70
2023/04/28 05:00:42;;;;;;;11.35;6.72;;;;;;;;;;7369924;19;20017;-70
2023/04/28 05:03:08;;;;;;;12.55;7.57;;;;;;;;;;7369744;19;20444;-70
2023/04/28 05:05:34;;;;;;;12.70;7.07;;;;;;;;;;7368936;19;20419;-70
2023/04/28 05:07:59;;;;;;;13.98;7.30;;;;;;;;;;7373060;19;20085;-70
2023/04/28 05:10:26;;;;;;;17.10;7.90;;;;;;;;;;7376124;19;20011;-72
2023/04/28 05:12:51;;;;;;;13.05;7.13;;;;;;;;;;7397293;19;20076;-71
2023/04/28 05:15:16;;;;;;;13.68;7.25;;;;;;;;;;7371097;19;20014;-71
2023/04/28 05:17:42;;;;;;;14.20;7.78;;;;;;;;;;7371905;19;20115;-70
2023/04/28 05:20:08;;;;;;;17.35;7.82;;;;;;;;;;7374155;19;20010;-70
2023/04/28 05:22:33;;;;;;;17.70;8.27;;;;;;;;;;7373048;19;20023;-70
2023/04/28 05:24:58;;;;;;;13.52;8.00;;;;;;;;;;7390705;19;19998;-70
2023/04/28 05:27:23;;;;;;;14.30;7.15;;;;;;;;;;7369581;19;20135;-70
2023/04/28 05:29:49;;;;;;;17.40;8.43;;;;;;;;;;7368237;19;20006;-70
2023/04/28 05:32:14;;;;;;;18.67;8.80;;;;;;;;;;7371836;19;20007;-70
2023/04/28 05:34:40;;;;;;;16.00;7.95;;;;;;;;;;7369826;19;20381;-70
2023/04/28 05:37:05;;;;;;;16.83;8.68;;;;;;;;;;7389210;19;20002;-70
2023/04/28 05:39:30;;;;;;;19.00;8.55;;;;;;;;;;7367088;19;20019;-69
2023/04/28 05:41:57;;;;;;;24.20;9.10;;;;;;;;;;7369392;19;20010;-70
2023/04/28 05:44:23;;;;;;;25.30;9.00;;;;;;;;;;7368208;19;20007;-70
2023/04/28 05:46:48;;;;;;;24.98;8.88;;;;;;;;;;7370422;19;20019;-70
2023/04/28 05:49:13;;;;;;;20.10;9.50;;;;;;;;;;7389449;19;20010;-70
2023/04/28 05:51:39;;;;;;;27.38;9.50;;;;;;;;;;7370634;19;20100;-70
2023/04/28 05:54:04;;;;;;;19.00;8.75;;;;;;;;;;7372436;19;20002;-70
2023/04/28 05:56:29;;;;;;;18.52;8.50;;;;;;;;;;7371695;19;20327;-70
2023/04/28 05:58:55;;;;;;;17.13;7.90;;;;;;;;;;7368216;19;20010;-71
2023/04/28 06:01:21;;;;;;;12.40;7.80;;;;;;;;;;7391900;19;19995;-69
2023/04/28 06:03:47;;;;;;;14.80;8.30;;;;;;;;;;7372590;19;19999;-69
2023/04/28 06:06:12;;;;;;;19.38;8.40;;;;;;;;;;7378885;19;20070;-70
2023/04/28 06:08:38;;;;;;;17.75;8.57;;;;;;;;;;7378930;19;20002;-70
2023/04/28 06:11:03;;;;;;;15.40;8.68;;;;;;;;;;7372023;19;20006;-71
2023/04/28 06:13:28;;;;;;;15.35;8.48;;;;;;;;;;7368894;19;20001;-71
2023/04/28 06:15:54;;;;;;;15.73;9.05;;;;;;;;;;7390976;19;20019;-70
2023/04/28 06:18:19;;;;;;;14.98;8.27;;;;;;;;;;7365593;19;20002;-70
2023/04/28 06:20:45;;;;;;;16.42;8.70;;;;;;;;;;7367000;19;20118;-70
2023/04/28 06:23:10;;;;;;;17.15;8.77;;;;;;;;;;7369658;19;20002;-70
2023/04/28 06:25:36;;;;;;;14.27;8.32;;;;;;;;;;7370658;19;20462;-71
2023/04/28 06:28:02;;;;;;;14.82;8.15;;;;;;;;;;7389662;19;19995;-71
2023/04/28 06:30:27;;;;;;;14.82;8.30;;;;;;;;;;7366073;19;20030;-71
2023/04/28 06:32:53;;;;;;;16.13;9.55;;;;;;;;;;7368209;19;20083;-71
2023/04/28 06:35:18;;;;;;;14.95;8.88;;;;;;;;;;7367018;19;20097;-71
2023/04/28 06:37:44;;;;;;;17.20;8.82;;;;;;;;;;7366628;19;20006;-71
2023/04/28 06:40:10;;;;;;;13.77;9.00;;;;;;;;;;7390807;19;20066;-71
2023/04/28 06:42:35;;;;;;;13.10;8.10;;;;;;;;;;7368410;19;20005;-71
2023/04/28 06:45:01;;;;;;;16.90;9.55;;;;;;;;;;7366622;19;20024;-70
2023/04/28 06:47:27;;;;;;;14.52;7.97;;;;;;;;;;7364336;19;20002;-71
2023/04/28 06:49:52;;;;;;;15.73;7.90;;;;;;;;;;7366300;19;20027;-71
2023/04/28 06:52:20;;;;;;;17.00;8.07;;;;;;;;;;7390798;19;20039;-71
2023/04/28 06:54:46;;;;;;;19.48;8.80;;;;;;;;;;7366926;19;20031;-71
2023/04/28 06:57:11;;;;;;;18.80;8.75;;;;;;;;;;7367729;19;20070;-71
2023/04/28 06:59:37;;;;;;;13.45;8.77;;;;;;;;;;7367132;19;20019;-70
2023/04/28 07:02:02;;;;;;;14.20;8.70;;;;;;;;;;7369576;19;20007;-71
2023/04/28 07:04:27;;;;;;;14.15;8.82;;;;;;;;;;7376503;19;19994;-71
2023/04/28 07:06:53;;;;;;;13.48;8.93;;;;;;;;;;7394927;19;20006;-70
2023/04/28 07:09:18;;;;;;;18.30;9.18;;;;;;;;;;7373124;19;20035;-70
2023/04/28 07:11:44;;;;;;;13.65;8.02;;;;;;;;;;7372575;19;20079;-70
2023/04/28 07:14:09;;;;;;;14.48;8.95;;;;;;;;;;7375235;19;20050;-72
2023/04/28 07:16:35;;;;;;;16.27;8.90;;;;;;;;;;7371280;19;20002;-71
2023/04/28 07:19:00;;;;;;;16.95;8.95;;;;;;;;;;7394747;19;20009;-70
2023/04/28 07:21:27;;;;;;;15.60;10.18;;;;;;;;;;7374608;19;20013;-70
2023/04/28 07:23:55;;;;;;;17.13;10.48;;;;;;;;;;7373871;19;20063;-70
2023/04/28 07:26:21;;;;;;;15.05;8.98;;;;;;;;;;7373641;19;20007;-71
2023/04/28 07:28:46;;;;;;;15.50;8.63;;;;;;;;;;7373914;19;20187;-70
2023/04/28 07:31:12;;;;;;;16.10;8.15;;;;;;;;;;7395619;19;19995;-70
2023/04/28 07:33:37;;;;;;;16.35;7.72;;;;;;;;;;7375184;19;20014;-72
2023/04/28 07:36:03;;;;;;;17.52;9.13;;;;;;;;;;7373095;19;20397;-70
2023/04/28 07:38:29;;;;;;;16.95;8.07;;;;;;;;;;7375572;19;20018;-70
2023/04/28 07:40:54;;;;;;;16.80;8.55;;;;;;;;;;7372481;19;20006;-70
2023/04/28 07:43:19;;;;;;;12.85;9.02;;;;;;;;;;7400201;19;20007;-70
2023/04/28 07:45:47;;;;;;;19.75;8.95;;;;;;;;;;7381357;19;20021;-70
2023/04/28 07:48:13;;;;;;;16.27;9.85;;;;;;;;;;7377107;19;20088;-70
2023/04/28 07:50:39;;;;;;;15.68;9.00;;;;;;;;;;7377317;19;19994;-69
2023/04/28 07:53:04;;;;;;;20.48;7.50;;;;;;;;;;7373499;19;20010;-70
2023/04/28 07:55:30;;;;;;;15.57;8.95;;;;;;;;;;7375488;19;20062;-70
2023/04/28 07:57:57;;;;;;;17.70;9.35;;;;;;;;;;7394403;19;20018;-69
2023/04/28 08:00:23;;;;;;;16.77;8.68;;;;;;;;;;7378485;19;20531;-71
2023/04/28 08:02:48;;;;;;;17.08;9.27;;;;;;;;;;7374730;19;20006;-70
2023/04/28 08:05:13;;;;;;;13.65;9.02;;;;;;;;;;7373677;19;20009;-71
2023/04/28 08:07:39;;;;;;;16.25;10.10;;;;;;;;;;7371715;19;20018;-71
2023/04/28 08:10:05;;;;;;;18.52;9.85;;;;;;;;;;7394616;19;19994;-70
2023/04/28 08:12:31;;;;;;;15.77;9.35;;;;;;;;;;7371402;19;20365;-71
2023/04/28 08:14:56;;;;;;;17.08;10.27;;;;;;;;;;7372091;19;20009;-71
2023/04/28 08:17:22;;;;;;;16.67;10.07;;;;;;;;;;7371442;19;20081;-70
2023/04/28 08:19:47;;;;;;;15.40;9.93;;;;;;;;;;7373622;19;20512;-70
2023/04/28 08:22:13;;;;;;;18.17;10.15;;;;;;;;;;7396413;19;20022;-71
2023/04/28 08:24:38;;;;;;;17.02;11.05;;;;;;;;;;7371880;19;20002;-70
2023/04/28 08:27:03;;;;;;;19.65;10.65;;;;;;;;;;7370631;19;20010;-70
2023/04/28 08:29:30;;;;;;;16.90;9.70;;;;;;;;;;7370922;19;20066;-71
2023/04/28 08:31:56;;;;;;;15.00;9.43;;;;;;;;;;7373164;19;20068;-71
2023/04/28 08:34:21;;;;;;;14.27;9.82;;;;;;;;;;7388889;19;20322;-72
2023/04/28 08:36:47;;;;;;;16.23;9.93;;;;;;;;;;7378004;19;19994;-70
2023/04/28 08:39:12;;;;;;;16.67;10.20;;;;;;;;;;7371332;19;20344;-70
2023/04/28 08:41:40;;;;;;;20.08;10.77;;;;;;;;;;7370039;19;20019;-70
2023/04/28 08:44:08;;;;;;;19.33;10.85;;;;;;;;;;7372292;19;20006;-71
2023/04/28 08:46:34;;;;;;;20.38;10.45;;;;;;;;;;7369620;19;20299;-72
2023/04/28 08:49:01;;;;;;;24.92;12.30;;;;;;;;;;7391771;19;20024;-71
2023/04/28 08:51:33;;;;;;;17.15;11.10;;;;;;;;;;7371601;19;20002;-71
2023/04/28 08:54:03;;;;;;;18.77;11.07;;;;;;;;;;7369900;19;20002;-70
2023/04/28 08:56:31;;;;;;;16.50;10.43;;;;;;;;;;7370464;19;20006;-71
2023/04/28 08:59:02;;;;;;;17.80;10.88;;;;;;;;;;7370611;19;20490;-74
2023/04/28 09:01:28;;;;;;;;;;;;;;;;;;7373371;19;20538;-72
2023/04/28 09:03:53;;;;;;;24.23;9.93;;;;;;;;;;7393895;19;19932;-71
2023/04/28 09:06:20;;;;;;;22.23;10.60;;;;;;;;;;7368857;19;20618;-71
2023/04/28 09:08:46;;;;;;;23.50;10.93;;;;;;;;;;7371527;19;20496;-71
2023/04/28 09:11:12;;;;;;;19.23;10.65;;;;;;;;;;7370563;19;20078;-70
2023/04/28 09:13:38;;;;;;;37.33;13.80;;;;;;;;;;7372408;19;20003;-70
2023/04/28 09:16:04;;;;;;;24.63;12.80;;;;;;;;;;7394393;19;19994;-70
2023/04/28 09:18:33;;;;;;;30.00;12.32;;;;;;;;;;7368839;19;19998;-70
2023/04/28 09:21:07;;;;;;;24.02;12.32;;;;;;;;;;7369331;19;19998;-70
2023/04/28 09:23:32;;;;;;;21.17;12.38;;;;;;;;;;7373474;19;20003;-70
2023/04/28 09:25:59;;;;;;;25.85;12.40;;;;;;;;;;7370977;19;20773;-70
2023/04/28 09:28:24;;;;;;;21.30;11.20;;;;;;;;;;7372760;19;20005;-70
2023/04/28 09:30:50;;;;;;;22.80;11.68;;;;;;;;;;7389207;19;20070;-69
2023/04/28 09:33:15;;;;;;;21.48;12.70;;;;;;;;;;7371027;19;20002;-70
2023/04/28 09:35:42;;;;;;;22.17;12.18;;;;;;;;;;7369821;19;20402;-70
2023/04/28 09:38:08;;;;;;;23.95;13.40;;;;;;;;;;7367581;19;20069;-70
2023/04/28 09:40:48;;;;;;;25.20;13.27;;;;;;;;;;7371818;19;19998;-72
2023/04/28 09:43:24;;;;;;;22.17;13.40;;;;;;;;;;7392066;19;19999;-71
2023/04/28 09:45:49;;;;;;;20.75;13.00;;;;;;;;;;7369242;19;20002;-71
2023/04/28 09:48:14;;;;;;;24.33;13.65;;;;;;;;;;7371812;19;20006;-70
2023/04/28 09:50:40;;;;;;;23.30;13.93;;;;;;;;;;7368968;19;19998;-70
2023/04/28 09:53:10;;;;;;;20.70;13.30;;;;;;;;;;7368553;19;19998;-70
2023/04/28 09:55:41;;;;;;;25.02;13.27;;;;;;;;;;7370754;19;19994;-71
2023/04/28 09:58:06;;;;;;;19.40;12.65;;;;;;;;;;7396664;19;19991;-70
2023/04/28 10:00:33;;;;;;;23.38;12.57;;;;;;;;;;7375250;19;20023;-71
2023/04/28 10:03:00;;;;;;;18.52;12.48;;;;;;;;;;7375965;19;19998;-70
2023/04/28 10:05:25;;;;;;;21.95;12.75;;;;;;;;;;7374027;19;20070;-71
2023/04/28 10:07:54;;;;;;;14.93;11.52;;;;;;;;;;7370116;19;20004;-70
2023/04/28 10:10:19;;;;;;;22.83;11.52;;;;;;;;;;7392237;19;20007;-70
2023/04/28 10:12:45;;;;;;;21.33;12.77;;;;;;;;;;7368782;19;20002;-70
2023/04/28 10:15:11;;;;;;;26.08;13.02;;;;;;;;;;7370251;19;20002;-70
2023/04/28 10:17:37;;;;;;;23.33;13.73;;;;;;;;;;7369010;19;20077;-70
2023/04/28 10:20:04;;;;;;;19.33;12.43;;;;;;;;;;7368422;19;20015;-70
2023/04/28 10:22:48;;;;;;;21.55;12.90;;;;;;;;;;7370656;19;20454;-70
2023/04/28 10:25:24;;;;;;;24.73;15.10;;;;;;;;;;7389451;19;20002;-70
2023/04/28 10:27:51;;;;;;;24.67;14.80;;;;;;;;;;7365892;19;19999;-70
2023/04/28 10:30:18;;;;;;;18.98;12.70;;;;;;;;;;7365422;19;20009;-69
2023/04/28 10:32:47;;;;;;;22.92;13.68;;;;;;;;;;7368917;19;20005;-70
2023/04/28 10:35:28;;;;;;;22.05;13.68;;;;;;;;;;7367824;19;20092;-70
2023/04/28 10:38:14;;;;;;;20.25;13.95;;;;;;;;;;7364814;19;20763;-70
2023/04/28 10:40:40;;;;;;;21.58;13.73;;;;;;;;;;7366046;19;19994;-70
2023/04/28 10:43:08;;;;;;;21.42;13.23;;;;;;;;;;7387529;19;19999;-69
2023/04/28 10:45:52;;;;;;;19.55;13.55;;;;;;;;;;7368502;19;20015;-69
2023/04/28 10:48:18;;;;;;;19.15;13.20;;;;;;;;;;7368860;19;20370;-70
2023/04/28 10:51:05;;;;;;;21.58;12.63;;;;;;;;;;7366654;19;20377;-70
2023/04/28 10:53:45;;;;;;;17.70;12.50;;;;;;;;;;7364539;19;20465;-70
2023/04/28 10:56:23;;;;;;;17.98;11.90;;;;;;;;;;7367789;19;20006;-69
2023/04/28 10:58:50;;;;;;;18.83;12.07;;;;;;;;;;7365912;19;20002;-69
2023/04/28 11:01:24;;;;;;;22.90;14.88;;;;;;;;;;7390126;19;20341;-69
2023/04/28 11:04:06;;;;;;;15.68;11.55;;;;;;;;;;7368668;19;20363;-69
2023/04/28 11:06:38;;;;;;;16.17;10.85;;;;;;;;;;7366159;19;20062;-69
2023/04/28 11:09:13;;;;;;;19.15;12.50;;;;;;;;;;7367020;19;20008;-70
2023/04/28 11:11:59;;;;;;;16.00;11.18;;;;;;;;;;7365051;19;20082;-69
2023/04/28 11:14:24;;;;;;;17.52;11.15;;;;;;;;;;7366469;19;20030;-70
2023/04/28 11:16:58;;;;;;;15.68;11.02;;;;;;;;;;7367635;19;20006;-69
2023/04/28 11:19:25;;;;;;;14.98;10.95;;;;;;;;;;7368624;19;19995;-71
2023/04/28 11:21:53;;;;;;;17.95;12.65;;;;;;;;;;7387132;19;20465;-70
2023/04/28 11:24:19;;;;;;;16.23;11.68;;;;;;;;;;7364532;19;20021;-70
2023/04/28 11:26:44;;;;;;;16.45;11.13;;;;;;;;;;7364454;19;20078;-70
2023/04/28 11:29:11;;;;;;;17.58;11.43;;;;;;;;;;7365688;19;19999;-70
2023/04/28 11:31:37;;;;;;;16.88;11.70;;;;;;;;;;7365659;19;20005;-70
2023/04/28 11:34:10;;;;;;;16.58;11.52;;;;;;;;;;7388062;19;20464;-70
2023/04/28 11:36:37;;;;;;;17.02;10.90;;;;;;;;;;7365147;19;19999;-70
2023/04/28 11:39:06;;;;;;;20.38;11.93;;;;;;;;;;7366698;19;20010;-70
2023/04/28 11:41:32;;;;;;;15.00;11.57;;;;;;;;;;7368075;19;20385;-70
2023/04/28 11:43:58;;;;;;;14.85;10.73;;;;;;;;;;7367184;19;20100;-70
2023/04/28 11:46:24;;;;;;;13.23;10.43;;;;;;;;;;7367853;19;20423;-70
2023/04/28 11:49:04;;;;;;;16.95;9.60;;;;;;;;;;7389744;19;19995;-70
2023/04/28 11:51:35;;;;;;;14.35;9.82;;;;;;;;;;7373812;19;20003;-69
2023/04/28 11:54:02;;;;;;;14.93;9.45;;;;;;;;;;7373790;19;20004;-70
2023/04/28 11:56:28;;;;;;;15.23;9.07;;;;;;;;;;7373609;19;20003;-70
2023/04/28 11:59:26;;;;;;;12.07;9.27;;;;;;;;;;7371216;19;20101;-70
2023/04/28 12:01:55;;;;;;;12.43;8.52;;;;;;;;;;7372063;19;20013;-70
2023/04/28 12:04:31;;;;;;;12.07;8.63;;;;;;;;;;7392826;19;20488;-69
2023/04/28 12:07:14;;;;;;;12.25;8.15;;;;;;;;;;7368410;19;20742;-69
2023/04/28 12:09:42;;;;;;;12.57;8.18;;;;;;;;;;7371341;19;20363;-69
2023/04/28 12:12:12;;;;;;;11.45;7.45;;;;;;;;;;7370900;19;20023;-69
2023/04/28 12:14:58;;;;;;;8.93;6.80;;;;;;;;;;7371447;19;19998;-69
2023/04/28 12:17:28;;;;;;;9.88;7.05;;;;;;;;;;7369531;19;20460;-69
2023/04/28 12:19:55;;;;;;;10.33;6.43;;;;;;;;;;7372390;19;20042;-69
2023/04/28 12:22:20;;;;;;;10.88;7.20;;;;;;;;;;7398788;19;20244;-68
2023/04/28 12:24:45;;;;;;;10.43;6.68;;;;;;;;;;7373869;19;20463;-69
2023/04/28 12:27:23;;;;;;;13.35;6.15;;;;;;;;;;7369507;19;20010;-69
2023/04/28 12:29:49;;;;;;;5.90;3.92;;;;;;;;;;7370473;19;20002;-69
2023/04/28 12:32:16;;;;;;;6.25;3.78;;;;;;;;;;7372739;19;20062;-69
2023/04/28 12:34:43;;;;;;;6.45;3.55;;;;;;;;;;7369724;19;21032;-69
2023/04/28 12:37:09;;;;;;;5.55;3.22;;;;;;;;;;7391360;19;19998;-69
2023/04/28 12:39:35;;;;;;;6.93;3.90;;;;;;;;;;7371232;19;20027;-69
2023/04/28 12:42:01;;;;;;;5.20;3.15;;;;;;;;;;7369265;19;20025;-69
2023/04/28 12:44:32;;;;;;;5.47;2.88;;;;;;;;;;7370686;19;20524;-69
2023/04/28 12:46:57;;;;;;;6.28;4.00;;;;;;;;;;7371350;19;20010;-69
2023/04/28 12:49:23;;;;;;;5.78;3.38;;;;;;;;;;7377248;19;20094;-70
2023/04/28 12:51:48;;;;;;;7.05;4.43;;;;;;;;;;7392246;19;19998;-69
2023/04/28 12:54:13;;;;;;;7.72;5.03;;;;;;;;;;7369655;19;20040;-69
2023/04/28 12:56:39;;;;;;;7.97;4.50;;;;;;;;;;7368796;19;20042;-69
2023/04/28 12:59:04;;;;;;;7.55;4.47;;;;;;;;;;7367948;19;20014;-69
2023/04/28 13:01:30;;;;;;;8.32;5.00;;;;;;;;;;7370921;19;19994;-71
2023/04/28 13:03:55;;;;;;;7.50;4.88;;;;;;;;;;7393811;19;20024;-70
2023/04/28 13:06:21;;;;;;;7.47;5.20;;;;;;;;;;7367680;19;20006;-70
2023/04/28 13:08:46;;;;;;;6.95;4.35;;;;;;;;;;7369857;19;20014;-70
2023/04/28 13:11:11;;;;;;;9.27;4.97;;;;;;;;;;7370272;19;20536;-70
2023/04/28 13:13:37;;;;;;;7.38;4.85;;;;;;;;;;7368290;19;20035;-69
2023/04/28 13:16:03;;;;;;;7.13;4.93;;;;;;;;;;7395080;19;20015;-70
2023/04/28 13:18:30;;;;;;;7.20;5.15;;;;;;;;;;7368551;19;20003;-68
2023/04/28 13:20:55;;;;;;;9.07;6.07;;;;;;;;;;7367041;19;19998;-69
2023/04/28 13:23:21;;;;;;;9.73;6.18;;;;;;;;;;7368433;19;20003;-69
2023/04/28 13:25:46;;;;;;;12.82;5.88;;;;;;;;;;7371021;19;20036;-69
2023/04/28 13:28:12;;;;;;;8.90;6.30;;;;;;;;;;7389462;19;20015;-69
2023/04/28 13:30:37;;;;;;;7.85;6.07;;;;;;;;;;7365697;19;20082;-70
2023/04/28 13:33:03;;;;;;;9.45;6.13;;;;;;;;;;7368859;19;20014;-70
2023/04/28 13:35:28;;;;;;;10.57;6.28;;;;;;;;;;7369358;19;20078;-70
2023/04/28 13:38:00;;;;;;;8.45;6.10;;;;;;;;;;7364755;19;20011;-70
2023/04/28 13:40:26;;;;;;;9.73;5.93;;;;;;;;;;7363059;19;20092;-70
2023/04/28 13:42:51;;;;;;;8.63;5.88;;;;;;;;;;7383085;19;20034;-69
2023/04/28 13:45:16;;;;;;;8.52;6.20;;;;;;;;;;7366717;19;20507;-70
2023/04/28 13:47:42;;;;;;;9.38;6.53;;;;;;;;;;7366001;19;20150;-69
2023/04/28 13:50:07;;;;;;;12.30;8.57;;;;;;;;;;7368573;19;20013;-70
2023/04/28 13:52:33;;;;;;;11.50;6.90;;;;;;;;;;7371054;19;20358;-70
2023/04/28 13:54:58;;;;;;;9.95;7.05;;;;;;;;;;7391294;19;20330;-70
2023/04/28 13:57:24;;;;;;;11.32;7.28;;;;;;;;;;7370522;19;20005;-70
2023/04/28 13:59:49;;;;;;;8.27;6.45;;;;;;;;;;7378229;19;20010;-70
2023/04/28 14:02:14;;;;;;;9.88;7.18;;;;;;;;;;7380034;19;20035;-70
2023/04/28 14:04:46;;;;;;;9.70;7.30;;;;;;;;;;7376157;19;20468;-70
2023/04/28 14:07:12;;;;;;;9.65;7.60;;;;;;;;;;7390744;19;20002;-70
2023/04/28 14:09:37;;;;;;;10.00;7.60;;;;;;;;;;7362715;19;21704;-70
2023/04/28 14:12:03;;;;;;;10.05;7.32;;;;;;;;;;7362703;19;20613;-70
2023/04/28 14:14:28;;;;;;;10.07;7.53;;;;;;;;;;7366694;19;20010;-70
2023/04/28 14:16:53;;;;;;;10.25;8.30;;;;;;;;;;7362403;19;20093;-70
2023/04/28 14:19:19;;;;;;;11.75;7.75;;;;;;;;;;7392181;19;20019;-70
2023/04/28 14:21:45;;;;;;;9.40;6.78;;;;;;;;;;7366318;19;20013;-70
2023/04/28 14:24:10;;;;;;;9.52;6.88;;;;;;;;;;7377054;19;20011;-70
2023/04/28 14:26:35;;;;;;;8.73;6.07;;;;;;;;;;7372691;19;20033;-70
2023/04/28 14:29:01;;;;;;;8.65;6.03;;;;;;;;;;7376388;19;20516;-70